TimeCDT,TemperatureF,Dew PointF,Humidity,Sea Level PressureIn,VisibilityMPH,Wind Direction,Wind SpeedMPH,Gust SpeedMPH,PrecipitationIn,Events,Conditions,WindDirDegrees,DateUTC
12:15 AM,27.5,18.3,68,30.10,10.0,WNW,16.1,23.0,N/A,,Overcast,300,2013-03-20 05:15:00
12:35 AM,27.5,18.7,69,30.10,10.0,WNW,12.7,20.7,N/A,,Overcast,300,2013-03-20 05:35:00
12:55 AM,27.5,18.5,69,30.10,10.0,WNW,17.3,20.7,N/A,,Overcast,300,2013-03-20 05:55:00
1:15 AM,27.3,18.7,70,30.10,10.0,WNW,15.0,21.9,N/A,,Overcast,300,2013-03-20 06:15:00
1:35 AM,26.6,19.0,73,30.10,10.0,WNW,15.0,19.6,N/A,,Overcast,300,2013-03-20 06:35:00
1:55 AM,26.4,18.1,71,30.10,10.0,WNW,20.7,26.5,N/A,,Overcast,300,2013-03-20 06:55:00
2:15 AM,25.5,16.7,69,30.10,10.0,WNW,15.0,21.9,N/A,,Scattered Clouds,290,2013-03-20 07:15:00
2:35 AM,24.6,15.3,68,30.10,10.0,WNW,17.3,-,N/A,,Clear,300,2013-03-20 07:35:00
2:55 AM,23.7,15.3,70,30.10,10.0,NW,15.0,-,N/A,,Clear,310,2013-03-20 07:55:00
3:15 AM,22.5,14.9,73,30.10,10.0,WNW,17.3,-,N/A,,Clear,300,2013-03-20 08:15:00
3:35 AM,21.7,14.9,75,30.10,10.0,WNW,15.0,-,N/A,,Clear,300,2013-03-20 08:35:00
3:55 AM,21.0,14.2,75,30.10,10.0,WNW,15.0,-,N/A,,Clear,300,2013-03-20 08:55:00
4:15 AM,19.9,12.4,72,30.11,10.0,WNW,17.3,23.0,N/A,,Clear,300,2013-03-20 09:15:00
4:35 AM,18.9,10.6,70,30.10,10.0,WNW,18.4,-,N/A,,Clear,300,2013-03-20 09:35:00
4:55 AM,18.1,10.2,71,30.11,10.0,WNW,21.9,26.5,N/A,,Clear,300,2013-03-20 09:55:00
5:15 AM,17.2,7.7,66,30.11,10.0,WNW,21.9,-,N/A,,Clear,300,2013-03-20 10:15:00
5:35 AM,17.6,8.6,68,30.13,10.0,WNW,12.7,-,N/A,,Clear,300,2013-03-20 10:35:00
5:55 AM,16.2,7.7,69,30.13,10.0,WNW,21.9,25.3,N/A,,Clear,300,2013-03-20 10:55:00
6:15 AM,15.6,7.0,69,30.14,10.0,WNW,20.7,28.8,N/A,,Clear,300,2013-03-20 11:15:00
6:35 AM,15.8,6.8,68,30.14,10.0,WNW,24.2,-,N/A,,Clear,300,2013-03-20 11:35:00
6:55 AM,14.9,6.4,69,30.14,10.0,WNW,19.6,26.5,N/A,,Clear,300,2013-03-20 11:55:00
7:15 AM,14.9,5.9,68,30.15,10.0,WNW,20.7,25.3,N/A,,Clear,290,2013-03-20 12:15:00
7:35 AM,14.9,5.0,65,30.15,10.0,WNW,17.3,28.8,N/A,,Clear,290,2013-03-20 12:35:00
7:55 AM,15.4,5.2,64,30.15,10.0,WNW,25.3,-,N/A,,Clear,300,2013-03-20 12:55:00
8:15 AM,15.8,5.0,62,30.15,10.0,WNW,24.2,31.1,N/A,,Clear,300,2013-03-20 13:15:00
8:35 AM,16.3,5.7,63,30.14,10.0,WNW,18.4,26.5,N/A,,Clear,290,2013-03-20 13:35:00
8:55 AM,16.7,6.1,63,30.15,10.0,WNW,21.9,28.8,N/A,,Clear,290,2013-03-20 13:55:00
9:15 AM,17.4,5.4,59,30.15,10.0,WNW,23.0,28.8,N/A,,Clear,300,2013-03-20 14:15:00
9:35 AM,18.3,6.4,60,30.15,10.0,WNW,18.4,24.2,N/A,,Clear,300,2013-03-20 14:35:00
9:55 AM,19.0,6.6,59,30.15,10.0,WNW,20.7,27.6,N/A,,Clear,290,2013-03-20 14:55:00
10:15 AM,19.4,6.3,57,30.15,10.0,WNW,19.6,32.2,N/A,,Clear,290,2013-03-20 15:15:00
10:35 AM,20.7,7.0,56,30.15,10.0,WNW,23.0,29.9,N/A,,Clear,300,2013-03-20 15:35:00
10:55 AM,20.8,6.8,55,30.15,10.0,WNW,17.3,29.9,N/A,,Scattered Clouds,290,2013-03-20 15:55:00
11:15 AM,21.7,7.9,55,30.14,10.0,WNW,19.6,32.2,N/A,,Clear,290,2013-03-20 16:15:00
11:35 AM,22.1,7.3,53,30.14,10.0,WNW,20.7,27.6,N/A,,Clear,300,2013-03-20 16:35:00
11:55 AM,22.8,8.6,55,30.14,10.0,WNW,17.3,27.6,N/A,,Clear,300,2013-03-20 16:55:00
12:15 PM,23.4,9.0,54,30.13,10.0,WNW,20.7,25.3,N/A,,Scattered Clouds,290,2013-03-20 17:15:00
12:35 PM,23.7,9.5,55,30.13,10.0,WNW,18.4,28.8,N/A,,Scattered Clouds,290,2013-03-20 17:35:00
12:55 PM,23.9,9.9,55,30.13,10.0,WNW,20.7,26.5,N/A,,Scattered Clouds,300,2013-03-20 17:55:00
1:15 PM,24.4,10.6,56,30.11,10.0,NW,21.9,26.5,N/A,,Scattered Clouds,310,2013-03-20 18:15:00
1:35 PM,24.8,10.9,56,30.11,10.0,WNW,20.7,29.9,N/A,,Clear,300,2013-03-20 18:35:00
1:55 PM,24.8,10.8,55,30.10,10.0,West,19.6,28.8,N/A,,Scattered Clouds,280,2013-03-20 18:55:00
2:15 PM,25.2,11.3,56,30.09,10.0,WNW,20.7,31.1,N/A,,Mostly Cloudy,290,2013-03-20 19:15:00
2:35 PM,27.1,11.7,52,30.08,10.0,WNW,25.3,32.2,N/A,,Mostly Cloudy,290,2013-03-20 19:35:00
2:55 PM,25.7,10.8,53,30.08,10.0,WNW,24.2,32.2,N/A,,Mostly Cloudy,290,2013-03-20 19:55:00
3:15 PM,26.8,11.8,53,30.08,10.0,West,23.0,29.9,N/A,,Mostly Cloudy,280,2013-03-20 20:15:00
3:35 PM,26.6,11.1,52,30.07,10.0,WNW,23.0,29.9,N/A,,Overcast,300,2013-03-20 20:35:00
3:55 PM,25.3,11.3,55,30.07,10.0,WNW,24.2,33.4,N/A,,Overcast,300,2013-03-20 20:55:00
4:15 PM,25.5,11.7,56,30.06,10.0,WNW,26.5,29.9,N/A,,Overcast,300,2013-03-20 21:15:00
4:35 PM,26.6,12.2,55,30.07,10.0,WNW,20.7,27.6,N/A,,Overcast,290,2013-03-20 21:35:00
4:55 PM,25.0,10.6,54,30.07,10.0,WNW,23.0,31.1,N/A,,Overcast,290,2013-03-20 21:55:00
5:15 PM,25.5,10.6,53,30.07,10.0,WNW,19.6,33.4,N/A,,Mostly Cloudy,290,2013-03-20 22:15:00
5:35 PM,24.8,10.4,54,30.07,10.0,WNW,23.0,31.1,N/A,,Mostly Cloudy,290,2013-03-20 22:35:00
5:55 PM,24.6,10.2,54,30.07,10.0,WNW,24.2,29.9,N/A,,Mostly Cloudy,300,2013-03-20 22:55:00
6:15 PM,24.8,9.9,53,30.07,10.0,WNW,25.3,29.9,N/A,,Mostly Cloudy,300,2013-03-20 23:15:00
6:35 PM,24.6,10.4,55,30.07,10.0,WNW,18.4,28.8,N/A,,Mostly Cloudy,290,2013-03-20 23:35:00
6:55 PM,23.9,10.6,57,30.07,10.0,WNW,18.4,27.6,N/A,,Mostly Cloudy,290,2013-03-20 23:55:00
7:15 PM,23.7,10.8,58,30.07,10.0,WNW,21.9,29.9,N/A,,Mostly Cloudy,300,2013-03-21 00:15:00
7:35 PM,23.4,10.8,59,30.07,10.0,WNW,20.7,27.6,N/A,,Mostly Cloudy,300,2013-03-21 00:35:00
7:55 PM,23.4,10.9,59,30.07,10.0,WNW,20.7,28.8,N/A,,Overcast,290,2013-03-21 00:55:00
8:15 PM,23.0,10.6,59,30.08,10.0,WNW,17.3,26.5,N/A,,Overcast,300,2013-03-21 01:15:00
8:35 PM,23.0,10.8,60,30.08,10.0,WNW,15.0,-,N/A,,Overcast,300,2013-03-21 01:35:00
8:55 PM,23.0,11.1,60,30.07,10.0,WNW,18.4,27.6,N/A,,Overcast,290,2013-03-21 01:55:00
9:15 PM,22.6,10.9,61,30.07,10.0,WNW,18.4,27.6,N/A,,Overcast,300,2013-03-21 02:15:00
9:35 PM,21.2,10.4,63,30.07,10.0,WNW,18.4,26.5,N/A,,Mostly Cloudy,300,2013-03-21 02:35:00
9:55 PM,21.4,10.4,63,30.08,10.0,WNW,15.0,-,N/A,,Mostly Cloudy,300,2013-03-21 02:55:00
10:15 PM,21.2,10.2,63,30.08,10.0,NW,17.3,-,N/A,,Mostly Cloudy,310,2013-03-21 03:15:00
10:35 PM,21.2,10.4,63,30.08,10.0,WNW,16.1,-,N/A,,Mostly Cloudy,300,2013-03-21 03:35:00
10:55 PM,21.0,12.7,70,30.08,10.0,WNW,17.3,24.2,N/A,,Overcast,300,2013-03-21 03:55:00
11:15 PM,20.3,14.7,79,30.08,7.0,WNW,12.7,-,N/A,,Overcast,290,2013-03-21 04:15:00
11:35 PM,20.3,12.0,70,30.08,10.0,WNW,18.4,23.0,N/A,,Overcast,290,2013-03-21 04:35:00
11:55 PM,19.8,9.5,64,30.07,10.0,WNW,17.3,-,N/A,,Mostly Cloudy,290,2013-03-21 04:55:00